Latest Coastal Weather Observations for Onslow Airport

IDW60701

Issued at 1:33 pm WST Tuesday 20 February 2018 (issued every 10 minutes, with the page automatically refreshed every 10 minutes)

About coastal observations | Map of coastal stations | Coastal observations for WA | Marine services | Other Formats
Station Details ID: 005017 Name: ONSLOW AIRPORT Lat: -21.67 Lon: 115.11 Height: 10.5 m
Data from the previous 72 hours. | See also: Recent months at Onslow Airport
Date/Time
WST
Temp
°C
Wind Pressure Rain since
9am
mm
Weather Cloud Vis
km
Sea
Height
m
Swell
Dir  Spd
kts
Gust
kts
hPa Trend Height
m
Period
s
Dir
20/01:30pm 31.7 WNW 23 28 1002.9 - 0.0 - - - - - - -
20/01:00pm 31.5 W 21 25 1003.3 - 0.0 - - - - - - -
20/12:30pm 30.4 WNW 21 26 1003.5 - 0.0 - - - - - - -
20/12:00pm 31.0 WNW 19 24 1003.7 - 0.0 - - - - - - -
20/11:30am 31.6 WNW 17 21 1004.0 - 0.0 - - - - - - -
20/11:18am 31.2 WNW 15 22 1004.1 - 0.0 - - - - - - -
20/11:00am 32.6 SW 7 11 1004.5 - 0.0 - - - - - - -
20/10:30am 30.9 SW 9 13 1004.9 - 0.0 - - - - - - -
20/10:00am 29.3 SW 11 15 1005.1 - 0.0 - - - - - - -
20/09:30am 28.3 SW 11 15 1005.3 - 0.0 - - - - - - -
20/09:00am 27.5 SW 12 16 1005.5 - 0.0 - - - - - - -
20/08:30am 26.1 SW 13 16 1005.5 - 0.0 - - - - - - -
20/08:00am 24.1 SW 13 17 1005.3 - 0.0 - - - - - - -
20/07:30am 23.9 WSW 12 15 1005.3 - 0.0 - - - - - - -
20/07:00am 23.2 WSW 9 12 1005.0 - 0.0 - - - - - - -
20/06:30am 22.0 W 8 11 1004.8 - 0.0 - - - - - - -
20/06:00am 22.0 WSW 7 8 1004.7 - 0.0 - - - - - - -
20/05:30am 22.2 WSW 8 9 1004.6 - 0.0 - - - - - - -
20/05:00am 22.6 WSW 9 11 1004.4 - 0.0 - - - - - - -
20/04:30am 22.8 WSW 9 12 1004.3 - 0.0 - - - - - - -
20/04:00am 23.0 WSW 9 11 1004.2 - 0.0 - - - - - - -
20/03:30am 23.2 SW 10 13 1004.1 - 0.0 - - - - - - -
20/03:00am 23.5 SW 12 17 1003.9 - 0.0 - - - - - - -
20/02:30am 23.7 SW 14 19 1003.9 - 0.0 - - - - - - -
20/02:00am 23.8 SW 13 16 1003.9 - 0.0 - - - - - - -
20/01:30am 23.9 SW 13 18 1004.1 - 0.0 - - - - - - -
20/01:00am 24.0 SW 14 18 1004.0 - 0.0 - - - - - - -
20/12:30am 24.2 SW 15 20 1004.1 - 0.0 - - - - - - -
20/12:00am 24.4 SW 15 20 1004.2 - 0.0 - - - - - - -
 
Date/Time
WST
Temp
°C
Wind Pressure Rain since
9am
mm
Weather Cloud Vis
km
Sea
Height
m
Swell
Dir  Spd
kts
Gust
kts
hPa Trend Height
m
Period
s
Dir
19/11:30pm 24.6 SW 17 24 1004.3 - 0.0 - - - - - - -
19/11:00pm 24.9 SW 17 22 1004.3 - 0.0 - - - - - - -
19/10:30pm 24.9 SW 19 25 1004.2 - 0.0 - - - - - - -
19/10:00pm 25.4 SW 19 25 1003.9 - 0.0 - - - - - - -
19/09:30pm 25.6 WSW 19 25 1003.9 - 0.0 - - - - - - -
19/09:00pm 26.0 WSW 18 27 1003.8 - 0.0 - - - - - - -
19/08:30pm 26.3 WSW 18 25 1003.6 - 0.0 - - - - - - -
19/08:00pm 26.6 WSW 18 23 1003.4 - 0.0 - - - - - - -
19/07:30pm 27.2 WSW 18 27 1003.1 - 0.0 - - - - - - -
19/07:00pm 28.2 WSW 18 24 1002.7 - 0.0 - - - - - - -
19/06:30pm 29.4 WSW 19 25 1002.3 - 0.0 - - - - - - -
19/06:00pm 30.4 WSW 21 27 1002.0 - 0.0 - - - - - - -
19/05:30pm 31.1 W 21 27 1002.0 - 0.0 - - - - - - -
19/05:00pm 30.7 W 22 30 1002.1 - 0.0 - - - - - - -
19/04:30pm 31.0 W 23 29 1002.0 - 0.0 - - - - - - -
19/04:00pm 30.9 W 23 29 1002.1 - 0.0 - - - - - - -
19/03:30pm 30.9 W 24 32 1001.9 - 0.0 - - - - - - -
19/03:00pm 31.4 W 25 31 1002.1 - 0.0 - - - - - - -
19/02:30pm 32.8 W 24 30 1002.4 - 0.0 - - - - - - -
19/02:00pm 31.3 W 21 29 1002.7 - 0.0 - - - - - - -
19/01:48pm 31.1 W 23 33 1002.8 - 0.0 - - - - - - -
19/01:30pm 31.2 WSW 20 31 1003.0 - 0.0 - - - - - - -
19/01:09pm 32.2 WSW 14 29 1003.5 - 0.0 - - - - - - -
19/01:00pm 32.8 SW 13 18 1003.7 - 0.0 - - - - - - -
19/12:30pm 33.3 SSW 12 21 1003.9 - 0.0 - - - - - - -
19/12:00pm 31.5 SSW 13 19 1004.4 - 0.0 - - - - - - -
19/11:30am 30.9 SW 12 18 1004.9 - 0.0 - - - - - - -
19/11:00am 29.7 SW 12 17 1005.2 - 0.0 - - - - - - -
19/10:30am 28.5 SSW 12 17 1005.8 - 0.0 - - - - - - -
19/10:00am 27.5 SW 12 17 1006.1 - 0.0 - - - - - - -
19/09:30am 26.5 SSW 14 18 1006.2 - 0.0 - - - - - - -
19/09:00am 25.2 SSW 14 19 1006.5 - 0.0 - - - - - - -
19/08:30am 24.3 SSW 17 21 1006.5 - 0.0 - - - - - - -
19/08:00am 23.6 SSW 17 21 1006.4 - 0.0 - - - - - - -
19/07:30am 22.5 SW 14 19 1006.4 - 0.0 - - - - - - -
19/07:00am 21.6 SW 12 15 1006.1 - 0.0 - - - - - - -
19/06:30am 21.4 SW 13 17 1005.9 - 0.0 - - - - - - -
19/06:00am 21.4 SW 14 17 1005.8 - 0.0 - - - - - - -
19/05:30am 21.6 SW 13 17 1005.8 - 0.0 - - - - - - -
19/05:00am 21.9 SW 14 19 1005.5 - 0.0 - - - - - - -
19/04:30am 22.0 SW 15 20 1005.4 - 0.0 - - - - - - -
19/04:00am 22.4 SW 16 22 1005.2 - 0.0 - - - - - - -
19/03:30am 22.7 SW 17 22 1005.2 - 0.0 - - - - - - -
19/03:00am 23.0 SW 16 21 1005.1 - 0.0 - - - - - - -
19/02:30am 23.1 SW 17 21 1004.9 - 0.0 - - - - - - -
19/02:00am 23.4 SW 19 25 1004.6 - 0.0 - - - - - - -
19/01:30am 23.6 SW 18 24 1004.6 - 0.0 - - - - - - -
19/01:00am 23.9 SW 19 24 1004.8 - 0.0 - - - - - - -
19/12:30am 24.2 SW 18 24 1005.0 - 0.0 - - - - - - -
19/12:00am 24.5 SW 16 21 1005.4 - 0.0 - - - - - - -
 
Date/Time
WST
Temp
°C
Wind Pressure Rain since
9am
mm
Weather Cloud Vis
km
Sea
Height
m
Swell
Dir  Spd
kts
Gust
kts
hPa Trend Height
m
Period
s
Dir
18/11:30pm 24.9 SW 16 21 1005.6 - 0.0 - - - - - - -
18/11:00pm 25.4 SW 18 23 1005.7 - 0.0 - - - - - - -
18/10:30pm 26.0 SW 17 23 1005.8 - 0.0 - - - - - - -
18/10:00pm 26.5 SW 17 22 1005.6 - 0.0 - - - - - - -
18/09:30pm 26.9 SW 18 25 1005.2 - 0.0 - - - - - - -
18/09:00pm 27.5 SW 19 26 1004.7 - 0.0 - - - - - - -
18/08:30pm 28.4 SW 17 25 1004.4 - 0.0 - - - - - - -
18/08:00pm 29.2 WSW 20 26 1003.8 - 0.0 - - - - - - -
18/07:30pm 30.2 WSW 18 23 1003.1 - 0.0 - - - - - - -
18/07:00pm 31.6 WSW 17 24 1002.8 - 0.0 - - - - - - -
18/06:30pm 33.2 WSW 18 25 1002.6 - 0.0 - - - - - - -
18/06:00pm 34.7 WSW 21 29 1002.1 - 0.0 - - - - - - -
18/05:30pm 36.0 WSW 20 27 1001.7 - 0.0 - - - - - - -
18/05:00pm 36.5 WSW 21 29 1001.3 - 0.0 - - - - - - -
18/04:30pm 37.3 WSW 22 30 1001.3 - 0.0 - - - - - - -
18/04:00pm 38.2 WSW 21 28 1001.2 - 0.0 - - - - - - -
18/03:30pm 38.0 WSW 18 25 1001.2 - 0.0 - - - - - - -
18/03:04pm 38.3 WSW 18 36 1001.3 - 0.0 - - - - - - -
18/03:00pm 38.0 WSW 17 25 1001.4 - 0.0 - - - - - - -
18/02:30pm 39.0 WSW 16 25 1001.9 - 0.0 - - - - - - -
18/02:18pm 38.7 SW 17 29 1002.1 - 0.0 - - - - - - -
18/02:00pm 39.7 SSW 15 22 1002.3 - 0.0 - - - - - - -
18/01:30pm 38.6 SSW 14 22 1002.8 - 0.0 - - - - - - -
18/01:00pm 37.3 SW 12 20 1003.2 - 0.0 - - - - - - -
18/12:30pm 36.6 SSW 12 19 1003.7 - 0.0 - - - - - - -
18/12:00pm 35.9 SSW 12 15 1003.9 - 0.0 - - - - - - -
18/11:30am 34.8 SSW 13 17 1004.1 - 0.0 - - - - - - -
18/11:00am 34.0 SSW 12 17 1004.6 - 0.0 - - - - - - -
18/10:30am 33.0 SSW 12 18 1004.9 - 0.0 - - - - - - -
18/10:00am 31.6 SSW 14 18 1004.9 - 0.0 - - - - - - -
18/09:30am 29.8 SSW 16 19 1005.0 - 0.0 - - - - - - -
18/09:00am 28.8 SSW 15 19 1004.9 - 0.0 - - - - - - -
18/08:30am 27.2 SW 18 23 1004.8 - 0.0 - - - - - - -
18/08:00am 26.2 SW 17 21 1004.6 - 0.0 - - - - - - -
18/07:30am 25.1 SW 16 21 1004.5 - 0.0 - - - - - - -
18/07:00am 24.2 SW 16 21 1004.2 - 0.0 - - - - - - -
18/06:30am 24.0 SW 14 18 1004.1 - 0.0 - - - - - - -
18/06:00am 24.4 SW 15 18 1003.9 - 0.0 - - - - - - -
18/05:30am 24.7 SW 15 19 1003.8 - 0.0 - - - - - - -
18/05:00am 25.1 SW 13 17 1003.7 - 0.0 - - - - - - -
18/04:30am 25.6 SSW 12 16 1003.6 - 0.0 - - - - - - -
18/04:00am 26.1 SSW 11 15 1003.2 - 0.0 - - - - - - -
18/03:30am 26.4 SSW 12 15 1003.0 - 0.0 - - - - - - -
18/03:00am 26.8 SW 13 18 1002.8 - 0.0 - - - - - - -
18/02:30am 27.2 SW 14 18 1002.5 - 0.0 - - - - - - -
18/02:00am 27.6 SW 14 18 1002.6 - 0.0 - - - - - - -
18/01:30am 27.8 SW 13 16 1002.5 - 0.0 - - - - - - -
18/01:00am 28.1 SW 15 20 1002.4 - 0.0 - - - - - - -
18/12:30am 28.6 SW 15 19 1002.8 - 0.0 - - - - - - -
18/12:00am 29.0 SW 12 16 1003.1 - 0.0 - - - - - - -
 
Date/Time
WST
Temp
°C
Wind Pressure Rain since
9am
mm
Weather Cloud Vis
km
Sea
Height
m
Swell
Dir  Spd
kts
Gust
kts
hPa Trend Height
m
Period
s
Dir
17/11:30pm 29.0 SW 11 13 1003.3 - 0.0 - - - - - - -
17/11:00pm 29.3 SW 13 17 1003.4 - 0.0 - - - - - - -
17/10:30pm 29.6 WSW 15 20 1003.3 - 0.0 - - - - - - -
17/10:00pm 30.0 SW 16 22 1003.6 - 0.0 - - - - - - -
17/09:30pm 30.0 WSW 15 21 1003.8 - 0.0 - - - - - - -
17/09:00pm 30.5 WSW 16 23 1004.1 - 0.0 - - - - - - -
17/08:30pm 31.3 WSW 11 16 1003.6 - 0.0 - - - - - - -
17/08:00pm 30.9 W 11 15 1003.1 - 0.0 - - - - - - -
17/07:30pm 29.9 W 13 18 1002.9 - 0.0 - - - - - - -
17/07:00pm 29.9 WNW 13 17 1002.8 - 0.0 - - - - - - -
17/06:30pm 30.9 WNW 16 21 1002.6 - 0.0 - - - - - - -
17/06:00pm 31.2 WNW 18 22 1002.3 - 0.0 - - - - - - -
17/05:30pm 31.6 WNW 18 23 1001.6 - 0.0 - - - - - - -
17/05:00pm 32.7 WNW 17 21 1001.5 - 0.0 - - - - - - -
17/04:30pm 33.1 WNW 18 22 1001.7 - 0.0 - - - - - - -
17/04:00pm 33.1 WNW 18 22 1002.0 - 0.0 - - - - - - -
17/03:30pm 33.6 WNW 18 22 1002.0 - 0.0 - - - - - - -
17/03:00pm 33.2 WNW 18 21 1002.6 - 0.0 - - - - - - -
17/02:30pm 33.4 WNW 17 21 1002.9 - 0.0 - - - - - - -
17/02:00pm 33.5 WNW 16 19 1003.1 - 0.0 - - - - - - -

Other Formats:

Comma delimited format used in spreadsheet applications
http://www.bom.gov.au/fwo/IDW60701/IDW60701.95305.axf

JavaScript Object Notation format (JSON) in row-major order
http://www.bom.gov.au/fwo/IDW60701/IDW60701.95305.json